createdAt,value
2019-04-14T00:02:49.556Z,68.67
2019-04-14T00:05:53.965Z,68.76
2019-04-14T00:08:56.498Z,68.94
2019-04-14T00:11:59.115Z,68.78
2019-04-14T00:15:02.408Z,68.89
2019-04-14T00:18:05.455Z,68.92
2019-04-14T00:21:08.716Z,68.86
2019-04-14T00:24:11.664Z,68.82
2019-04-14T00:27:14.883Z,68.88
2019-04-14T00:30:18.766Z,68.87
2019-04-14T00:33:23.551Z,68.88
2019-04-14T00:36:28.377Z,68.89
2019-04-14T00:39:47.174Z,68.86
2019-04-14T00:42:52.203Z,68.78
2019-04-14T00:46:00.929Z,68.86
2019-04-14T00:49:02.844Z,68.79
2019-04-14T00:52:05.756Z,68.68
2019-04-14T00:55:08.309Z,68.63
2019-04-14T00:58:10.409Z,68.61
2019-04-14T01:01:13.302Z,68.51
2019-04-14T01:04:16.530Z,68.65
2019-04-14T01:07:19.533Z,68.73
2019-04-14T01:10:21.803Z,68.60
2019-04-14T01:13:24.617Z,68.60
2019-04-14T01:16:28.069Z,68.43
2019-04-14T01:19:30.967Z,68.37
2019-04-14T01:22:33.540Z,68.31
2019-04-14T01:25:36.814Z,68.42
2019-04-14T01:28:39.688Z,68.50
2019-04-14T01:31:42.518Z,68.43
2019-04-14T01:34:45.513Z,68.58
2019-04-14T01:37:48.655Z,68.55
2019-04-14T01:40:51.030Z,68.41
2019-04-14T01:43:53.907Z,68.56
2019-04-14T01:46:56.586Z,68.36
2019-04-14T01:49:59.507Z,68.39
2019-04-14T01:53:05.309Z,68.35
2019-04-14T01:56:18.736Z,68.54
2019-04-14T01:59:21.959Z,68.40
2019-04-14T02:02:27.013Z,68.30
2019-04-14T02:05:29.998Z,68.39
2019-04-14T02:08:32.891Z,68.32
2019-04-14T02:11:35.571Z,68.15
2019-04-14T02:14:38.701Z,68.09
2019-04-14T02:17:41.653Z,68.45
2019-04-14T02:20:44.713Z,68.21
2019-04-14T02:23:47.517Z,68.10
2019-04-14T02:26:50.521Z,68.00
2019-04-14T02:29:53.756Z,67.91
2019-04-14T02:33:28.822Z,68.01
2019-04-14T02:36:30.363Z,67.96
2019-04-14T02:39:38.601Z,67.96
2019-04-14T02:51:54.055Z,68.20
2019-04-14T02:57:55.506Z,68.11
2019-04-14T03:10:16.316Z,68.09
2019-04-14T03:16:21.722Z,68.29
2019-04-14T03:19:29.891Z,68.08
2019-04-14T03:22:53.500Z,68.10
2019-04-14T03:25:46.896Z,68.01
2019-04-14T03:28:58.960Z,67.93
2019-04-14T03:32:23.648Z,67.86
2019-04-14T03:35:42.969Z,67.96
2019-04-14T03:38:18.506Z,67.88
2019-04-14T03:41:25.813Z,68.00
2019-04-14T03:50:29.173Z,67.82
2019-04-14T03:56:46.333Z,67.65
2019-04-14T03:59:49.969Z,67.68
2019-04-14T04:02:53.306Z,67.81
2019-04-14T04:05:56.412Z,67.96
2019-04-14T04:08:59.681Z,67.87
2019-04-14T04:12:03.137Z,67.74
2019-04-14T04:15:06.710Z,67.52
2019-04-14T04:18:26.583Z,67.53
2019-04-14T04:21:33.445Z,67.70
2019-04-14T04:24:38.892Z,67.64
2019-04-14T04:27:44.016Z,67.51
2019-04-14T04:30:51.614Z,67.44
2019-04-14T04:34:01.118Z,67.53
2019-04-14T04:37:05.830Z,67.58
2019-04-14T04:40:16.347Z,67.52
2019-04-14T04:43:19.009Z,67.57
2019-04-14T04:46:22.025Z,67.64
2019-04-14T04:49:27.382Z,67.62
2019-04-14T04:52:28.419Z,67.35
2019-04-14T04:55:30.674Z,67.24
2019-04-14T04:58:32.846Z,66.94
2019-04-14T05:01:34.935Z,66.99
2019-04-14T05:04:37.286Z,66.94
2019-04-14T05:07:40.547Z,66.83
2019-04-14T05:10:44.366Z,66.76
2019-04-14T05:13:48.973Z,66.58
2019-04-14T05:16:51.319Z,66.55
2019-04-14T05:19:54.042Z,66.11
2019-04-14T05:22:57.256Z,65.94
2019-04-14T05:26:00.542Z,65.74
2019-04-14T05:29:03.607Z,65.25
2019-04-14T05:32:08.765Z,64.92
2019-04-14T05:35:12.005Z,64.94
2019-04-14T05:38:14.739Z,64.62
2019-04-14T05:41:17.910Z,64.33
2019-04-14T05:44:20.755Z,64.29
2019-04-14T05:47:23.831Z,63.20
2019-04-14T05:50:27.192Z,62.73
2019-04-14T05:53:30.444Z,62.62
2019-04-14T05:56:35.050Z,62.17
2019-04-14T05:59:37.532Z,62.10
2019-04-14T06:02:40.004Z,61.73
2019-04-14T06:05:42.851Z,61.05
2019-04-14T06:08:45.183Z,60.84
2019-04-14T06:11:47.106Z,59.95
2019-04-14T06:14:49.043Z,59.35
2019-04-14T06:17:51.063Z,58.91
2019-04-14T06:20:53.091Z,58.21
2019-04-14T06:23:55.146Z,57.12
2019-04-14T06:26:57.044Z,56.92
2019-04-14T06:30:00.904Z,55.00
2019-04-14T06:33:07.824Z,53.65
2019-04-14T06:36:23.660Z,51.82
2019-04-14T06:39:27.595Z,51.00
2019-04-14T06:42:29.618Z,50.84
2019-04-14T06:45:31.617Z,50.25
2019-04-14T06:48:33.534Z,48.27
2019-04-14T06:51:35.561Z,47.69
2019-04-14T06:54:37.574Z,43.96
2019-04-14T06:57:39.483Z,42.84
2019-04-14T07:00:41.451Z,42.33
2019-04-14T07:03:44.837Z,42.87
2019-04-14T07:06:46.804Z,43.72
2019-04-14T07:09:48.778Z,41.78
2019-04-14T07:12:50.694Z,43.33
2019-04-14T07:15:52.623Z,43.88
2019-04-14T07:18:54.641Z,44.02
2019-04-14T07:21:56.664Z,44.06
2019-04-14T07:24:58.692Z,44.18
2019-04-14T07:28:00.615Z,44.36
2019-04-14T07:31:10.141Z,45.97
2019-04-14T07:34:30.710Z,45.40
2019-04-14T07:37:43.813Z,45.74
2019-04-14T07:40:47.553Z,45.79
2019-04-14T07:43:55.710Z,45.73
2019-04-14T07:47:02.289Z,44.81
2019-04-14T07:50:17.101Z,45.16
2019-04-14T07:53:29.735Z,44.83
2019-04-14T07:56:33.503Z,44.16
2019-04-14T07:59:40.152Z,45.41
2019-04-14T08:02:47.021Z,43.43
2019-04-14T08:05:48.969Z,44.18
2019-04-14T08:08:50.892Z,44.21
2019-04-14T08:11:52.839Z,43.88
2019-04-14T08:14:54.780Z,43.25
2019-04-14T08:17:56.712Z,42.77
2019-04-14T08:20:58.793Z,42.45
2019-04-14T08:24:00.827Z,42.38
2019-04-14T08:27:02.833Z,42.68
2019-04-14T08:30:07.069Z,42.24
2019-04-14T08:33:09.085Z,42.74
2019-04-14T08:36:11.338Z,42.45
2019-04-14T08:39:13.338Z,42.06
2019-04-14T08:42:22.956Z,41.12
2019-04-14T08:45:41.557Z,40.95
2019-04-14T08:48:45.286Z,41.55
2019-04-14T08:52:05.691Z,41.04
2019-04-14T08:55:28.018Z,40.36
2019-04-14T08:58:47.241Z,40.83
2019-04-14T09:01:50.978Z,39.86
2019-04-14T09:05:07.153Z,39.83
2019-04-14T09:08:20.164Z,38.95
2019-04-14T09:11:23.991Z,39.29
2019-04-14T09:14:25.916Z,39.17
2019-04-14T09:17:29.155Z,38.11
2019-04-14T09:20:31.079Z,39.45
2019-04-14T09:23:33.111Z,40.32
2019-04-14T09:26:35.125Z,40.10
2019-04-14T09:29:37.032Z,40.71
2019-04-14T09:32:38.944Z,40.18
2019-04-14T09:35:40.938Z,39.59
2019-04-14T09:38:42.926Z,39.60
2019-04-14T09:41:44.898Z,40.32
2019-04-14T09:44:46.826Z,40.01
2019-04-14T09:47:48.847Z,40.29
2019-04-14T09:51:03.917Z,40.73
2019-04-14T09:53:55.784Z,40.27
2019-04-14T09:56:57.748Z,40.82
2019-04-14T09:59:59.739Z,41.71
2019-04-14T10:03:01.705Z,42.43
2019-04-14T10:06:03.744Z,41.39
2019-04-14T10:09:06.304Z,42.39
2019-04-14T10:12:08.451Z,43.46
2019-04-14T10:15:10.567Z,42.53
2019-04-14T10:18:12.951Z,42.31
2019-04-14T10:21:17.554Z,42.32
2019-04-14T10:24:18.851Z,41.56
2019-04-14T10:27:20.929Z,42.38
2019-04-14T10:30:22.927Z,38.86
2019-04-14T10:33:28.033Z,40.33
2019-04-14T10:36:30.061Z,40.07
2019-04-14T10:39:34.103Z,41.40
2019-04-14T10:42:36.062Z,40.54
2019-04-14T10:45:38.003Z,41.69
2019-04-14T10:48:39.976Z,41.40
2019-04-14T10:51:41.946Z,41.54
2019-04-14T10:54:43.873Z,40.55
2019-04-14T10:57:45.883Z,41.20
2019-04-14T11:00:47.811Z,40.74
2019-04-14T11:03:49.781Z,38.73
2019-04-14T11:07:04.539Z,39.23
2019-04-14T11:10:07.489Z,38.20
2019-04-14T11:13:09.480Z,37.76
2019-04-14T11:16:11.477Z,38.67
2019-04-14T11:19:13.440Z,38.58
2019-04-14T11:22:15.477Z,38.33
2019-04-14T11:25:17.490Z,39.15
2019-04-14T11:28:19.576Z,37.57
2019-04-14T11:31:40.085Z,37.95
2019-04-14T11:34:43.878Z,39.20
2019-04-14T11:37:50.671Z,38.84
2019-04-14T11:40:54.503Z,40.01
2019-04-14T11:43:56.446Z,37.22
2019-04-14T11:46:58.471Z,37.62
2019-04-14T11:50:00.388Z,36.93
2019-04-14T11:53:02.284Z,37.64
2019-04-14T11:56:05.090Z,37.57
2019-04-14T11:59:06.980Z,36.62
2019-04-14T12:02:10.797Z,36.71
2019-04-14T12:05:14.677Z,37.08
2019-04-14T12:08:35.089Z,38.22
2019-04-14T12:11:37.000Z,37.48
2019-04-14T12:14:38.931Z,38.09
2019-04-14T12:17:40.890Z,36.68
2019-04-14T12:20:43.084Z,37.81
2019-04-14T12:23:44.958Z,37.27
2019-04-14T12:26:46.941Z,36.69
2019-04-14T12:29:50.060Z,36.91
2019-04-14T12:32:52.272Z,37.89
2019-04-14T12:35:54.308Z,37.69
2019-04-14T12:38:56.793Z,37.53
2019-04-14T12:42:06.433Z,37.39
2019-04-14T12:45:11.639Z,38.23
2019-04-14T12:48:15.424Z,38.23
2019-04-14T12:51:20.601Z,38.28
2019-04-14T12:54:23.169Z,38.75
2019-04-14T12:57:38.971Z,37.02
2019-04-14T13:00:42.707Z,36.73
2019-04-14T13:03:44.696Z,36.02
2019-04-14T13:06:47.740Z,35.87
2019-04-14T13:09:49.770Z,35.83
2019-04-14T13:12:51.667Z,36.40
2019-04-14T13:15:54.271Z,36.81
2019-04-14T13:18:56.209Z,35.89
2019-04-14T13:21:58.228Z,36.27
2019-04-14T13:25:00.152Z,36.21
2019-04-14T13:28:03.661Z,36.24
2019-04-14T13:31:06.103Z,36.24
2019-04-14T13:34:08.140Z,35.47
2019-04-14T13:37:10.114Z,35.79
2019-04-14T13:40:12.600Z,34.51
2019-04-14T13:43:14.553Z,34.25
2019-04-14T13:46:16.493Z,34.18
2019-04-14T13:49:18.480Z,34.51
2019-04-14T13:52:20.515Z,35.16
2019-04-14T13:55:22.487Z,35.18
2019-04-14T13:58:24.455Z,35.66
2019-04-14T14:01:26.391Z,35.21
2019-04-14T14:04:29.350Z,35.36
2019-04-14T14:07:33.254Z,35.29
2019-04-14T14:10:36.036Z,35.48
2019-04-14T14:13:39.778Z,35.69
2019-04-14T14:16:49.871Z,35.11
2019-04-14T14:19:53.642Z,35.84
2019-04-14T14:23:14.004Z,35.64
2019-04-14T14:26:17.737Z,34.82
2019-04-14T14:29:19.676Z,34.33
2019-04-14T14:32:23.529Z,34.61
2019-04-14T14:35:25.590Z,33.92
2019-04-14T14:38:28.611Z,34.10
2019-04-14T14:41:30.714Z,34.37
2019-04-14T14:44:34.476Z,34.34
2019-04-14T14:47:36.439Z,33.98
2019-04-14T14:50:49.399Z,33.64
2019-04-14T14:53:51.381Z,33.60
2019-04-14T14:56:53.397Z,34.12
2019-04-14T14:59:55.313Z,33.79
2019-04-14T15:02:57.588Z,33.09
2019-04-14T15:05:59.595Z,33.04
2019-04-14T15:09:01.543Z,32.20
2019-04-14T15:12:05.364Z,32.53
2019-04-14T15:15:07.492Z,32.63
2019-04-14T15:18:09.397Z,32.81
2019-04-14T15:21:11.340Z,32.50
2019-04-14T15:24:13.321Z,32.77
2019-04-14T15:27:15.250Z,31.61
2019-04-14T15:30:20.203Z,31.89
2019-04-14T15:33:23.472Z,30.99
2019-04-14T15:36:25.400Z,31.35
2019-04-14T15:39:29.145Z,32.03
2019-04-14T15:42:31.124Z,31.96
2019-04-14T15:45:33.106Z,31.43
2019-04-14T15:48:37.893Z,30.62
2019-04-14T15:51:39.847Z,30.96
2019-04-14T15:54:41.941Z,31.48
2019-04-14T15:57:48.691Z,30.29
2019-04-14T16:00:52.535Z,29.52
2019-04-14T16:03:59.416Z,30.05
2019-04-14T16:07:03.203Z,29.56
2019-04-14T16:10:16.618Z,30.25
2019-04-14T16:13:23.250Z,30.21
2019-04-14T16:16:26.974Z,29.78
2019-04-14T16:19:42.481Z,29.54
2019-04-14T16:22:46.243Z,30.09
2019-04-14T16:25:50.921Z,29.72
2019-04-14T16:29:13.159Z,29.97
2019-04-14T16:32:35.765Z,29.57
2019-04-14T16:35:39.585Z,29.43
2019-04-14T16:38:42.807Z,29.64
2019-04-14T16:41:44.836Z,30.18
2019-04-14T16:44:48.680Z,30.81
2019-04-14T16:47:51.095Z,30.41
2019-04-14T16:50:55.368Z,31.02
2019-04-14T16:54:03.565Z,30.47
2019-04-14T16:57:29.016Z,29.75
2019-04-14T17:00:33.385Z,30.32
2019-04-14T17:03:35.835Z,30.74
2019-04-14T17:06:37.838Z,30.96
2019-04-14T17:09:40.346Z,31.29
2019-04-14T17:12:44.821Z,31.39
2019-04-14T17:15:50.309Z,31.07
2019-04-14T17:18:55.606Z,31.25
2019-04-14T17:22:02.637Z,31.55
2019-04-14T17:25:18.205Z,31.97
2019-04-14T17:28:40.635Z,32.21
2019-04-14T17:31:47.509Z,33.45
2019-04-14T17:34:58.968Z,33.60
2019-04-14T17:38:09.913Z,34.09
2019-04-14T17:41:13.701Z,34.55
2019-04-14T17:44:35.390Z,34.78
2019-04-14T17:47:52.642Z,35.35
2019-04-14T17:51:12.678Z,35.30
2019-04-14T17:54:28.344Z,34.88
2019-04-14T17:57:38.494Z,34.96
2019-04-14T18:00:55.545Z,35.37
2019-04-14T18:04:05.828Z,35.20
2019-04-14T18:07:12.373Z,35.02
2019-04-14T18:10:19.189Z,35.50
2019-04-14T18:13:36.141Z,35.64
2019-04-14T18:16:45.677Z,36.12
2019-04-14T18:19:54.153Z,36.24
2019-04-14T18:22:59.481Z,36.86
2019-04-14T18:26:01.634Z,37.07
2019-04-14T18:29:05.484Z,36.96
2019-04-14T18:32:19.054Z,37.10
2019-04-14T18:35:28.857Z,36.47
2019-04-14T18:38:43.661Z,36.20
2019-04-14T18:42:03.970Z,35.92
2019-04-14T18:45:26.601Z,36.20
2019-04-14T18:48:33.352Z,36.59
2019-04-14T18:51:40.330Z,37.08
2019-04-14T18:54:54.826Z,37.16
2019-04-14T18:58:02.162Z,36.86
2019-04-14T19:01:07.809Z,36.99
2019-04-14T19:04:09.785Z,37.03
2019-04-14T19:07:11.707Z,37.74
2019-04-14T19:10:19.206Z,37.64
2019-04-14T19:13:29.025Z,37.53
2019-04-14T19:16:39.273Z,37.45
2019-04-14T19:19:38.437Z,37.29
2019-04-14T19:22:41.637Z,36.97
2019-04-14T19:25:46.928Z,36.98
2019-04-14T19:28:48.914Z,37.24
2019-04-14T19:31:52.593Z,37.13
2019-04-14T19:34:54.605Z,37.45
2019-04-14T19:37:56.982Z,37.48
2019-04-14T19:41:02.866Z,37.27
2019-04-14T19:44:05.960Z,37.48
2019-04-14T19:47:07.950Z,37.39
2019-04-14T19:50:11.831Z,37.64
2019-04-14T19:53:14.339Z,37.85
2019-04-14T19:56:16.305Z,37.98
2019-04-14T19:59:19.834Z,38.01
2019-04-14T20:02:21.846Z,38.00
2019-04-14T20:05:23.865Z,38.19
2019-04-14T20:08:27.682Z,38.54
2019-04-14T20:11:32.344Z,38.73
2019-04-14T20:14:34.265Z,38.72
2019-04-14T20:17:50.102Z,38.74
2019-04-14T20:21:13.268Z,38.71
2019-04-14T20:24:17.246Z,38.84
2019-04-14T20:27:32.831Z,38.98
2019-04-14T20:30:38.420Z,39.15
2019-04-14T20:33:41.786Z,39.14
2019-04-14T20:36:45.052Z,39.58
2019-04-14T20:39:47.054Z,39.56
2019-04-14T20:42:49.724Z,39.92
2019-04-14T20:45:52.911Z,40.19
2019-04-14T20:48:56.150Z,40.34
2019-04-14T20:51:58.117Z,40.53
2019-04-14T20:55:00.132Z,40.58
2019-04-14T20:58:02.234Z,40.76
2019-04-14T21:01:07.164Z,40.79
2019-04-14T21:04:16.684Z,41.20
2019-04-14T21:07:20.425Z,41.22
2019-04-14T21:10:24.179Z,40.98
2019-04-14T21:13:31.881Z,41.24
2019-04-14T21:16:44.737Z,40.95
2019-04-14T21:19:48.508Z,41.04
2019-04-14T21:23:07.306Z,40.67
2019-04-14T21:26:11.139Z,40.68
2019-04-14T21:29:31.430Z,40.69
2019-04-14T21:32:35.152Z,40.66
2019-04-14T21:35:38.908Z,40.80
2019-04-14T21:38:59.501Z,41.24
2019-04-14T21:42:01.511Z,41.23
2019-04-14T21:45:05.979Z,42.02
2019-04-14T21:48:07.977Z,42.58
2019-04-14T21:51:09.944Z,42.89
2019-04-14T21:54:11.975Z,43.10
2019-04-14T21:57:18.822Z,43.24
2019-04-14T22:00:35.682Z,43.60
2019-04-14T22:03:53.546Z,43.55
2019-04-14T22:07:09.425Z,43.57
2019-04-14T22:10:19.522Z,43.60
2019-04-14T22:13:22.113Z,44.06
2019-04-14T22:16:24.153Z,44.65
2019-04-14T22:19:26.210Z,44.58
2019-04-14T22:22:28.206Z,44.74
2019-04-14T22:25:30.195Z,44.85
2019-04-14T22:28:32.143Z,44.99
2019-04-14T22:31:34.216Z,44.88
2019-04-14T22:34:36.149Z,45.03
2019-04-14T22:37:38.083Z,45.08
2019-04-14T22:40:41.134Z,44.84
2019-04-14T22:43:44.050Z,45.17
2019-04-14T22:46:46.060Z,45.14
2019-04-14T22:49:48.059Z,45.19
2019-04-14T22:52:50.021Z,45.14
2019-04-14T22:55:52.062Z,45.19
2019-04-14T22:58:54.015Z,45.17
2019-04-14T23:02:04.027Z,45.09
2019-04-14T23:05:08.424Z,45.08
2019-04-14T23:08:14.980Z,45.33
2019-04-14T23:11:18.856Z,45.40
2019-04-14T23:14:25.325Z,45.75
2019-04-14T23:17:34.952Z,45.83
2019-04-14T23:20:51.030Z,46.05
2019-04-14T23:24:14.064Z,46.47
2019-04-14T23:27:16.805Z,46.31
2019-04-14T23:30:18.787Z,46.50
2019-04-14T23:33:20.778Z,46.69
2019-04-14T23:36:22.707Z,46.71
2019-04-14T23:39:24.690Z,47.36
2019-04-14T23:42:26.676Z,46.95
2019-04-14T23:45:28.646Z,46.94
2019-04-14T23:48:30.612Z,47.16
2019-04-14T23:51:32.544Z,47.00
2019-04-14T23:54:34.458Z,47.34
2019-04-14T23:57:36.497Z,47.13
